Home   Weather   Cyprus   Limassol   Past weeks
Flag for Cyprus

Past Weather in Limassol, Cyprus — Yesterday and Last 2 Weeks

Currently: 73 °F. Sunny. (Weather station: Akrotiri, Cyprus). See more current weather

Past Weather in Limassol — Graph

°F

Limassol Temperature Yesterday

Maximum temperature yesterday: 81 °F (at 4:20 pm)
Minimum temperature yesterday: 59 °F (at 6:20 am)
Average temperature yesterday: 72 °F

High & Low Weather Summary for the Past Weeks

 TemperatureHumidityPressure
High82 °F (Apr 2, 11:50 am)94% (Apr 4, 9:50 pm)30.01 "Hg (Apr 4, 9:50 pm)
Low55 °F (Apr 5, 6:50 am)26% (Apr 16, 10:50 am)29.68 "Hg (Apr 8, 3:20 am)
Average67 °F67%29.90 "Hg
* Reported Apr 2 7:20 am — Apr 17 7:50 am, Limassol. Weather by CustomWeather, © 2024

Note: Actual official high and low records may vary slightly from our data, if they occured in-between our weather recording intervals... More about our weather records

Limassol Weather History for the Previous 24 Hours

Scroll right to see more
 ConditionsComfort  
Time TempWeatherWind HumidityBarometerVisibility
7:50 am
Wed, Apr 17
70 °FSunny.8 mph53%29.86 "Hg10 mi
7:20 am68 °FSunny.9 mph64%29.86 "Hg10 mi
6:50 am64 °FSunny.10 mph73%29.86 "Hg10 mi
6:20 am64 °FSunny.8 mph68%29.86 "Hg10 mi
5:50 am64 °FClear.9 mph78%29.86 "Hg10 mi
5:20 am63 °FClear.9 mph83%29.86 "Hg10 mi
3:50 am64 °FClear.6 mph46%29.86 "Hg10 mi
3:20 am64 °FClear.5 mph52%29.89 "Hg10 mi
2:50 am64 °FClear.3 mph56%29.89 "Hg10 mi
2:20 am64 °FClear.3 mph56%29.89 "Hg10 mi
1:50 am64 °FClear.2 mph56%29.89 "Hg10 mi
1:20 am64 °FClear.2 mph60%29.92 "Hg10 mi
12:50 am64 °FClear.2 mph56%29.92 "Hg10 mi
12:20 am66 °FClear.2 mph56%29.92 "Hg10 mi
11:50 pm
Tue, Apr 16
66 °FClear.3 mph56%29.92 "Hg10 mi
11:20 pm66 °FClear.2 mph56%29.95 "Hg10 mi
10:50 pm68 °FClear.1 mph53%29.95 "Hg10 mi
10:20 pm70 °FClear.3 mph43%29.95 "Hg10 mi
9:50 pm70 °FClear.6 mph73%29.95 "Hg10 mi
8:50 pm72 °FClear.6 mph69%29.95 "Hg10 mi
8:20 pm72 °FClear.5 mph65%29.95 "Hg10 mi
7:50 pm72 °FClear.6 mph65%29.95 "Hg10 mi
7:20 pm73 °FMild.5 mph57%29.95 "HgN/A
6:50 pm75 °FSunny.5 mph47%29.95 "Hg10 mi
6:20 pm77 °FSunny.6 mph39%29.95 "Hg10 mi
5:50 pm79 °FSunny.7 mph26%29.95 "Hg10 mi
5:20 pm77 °FPleasantly warm.7 mph34%29.95 "HgN/A
4:50 pm79 °FSunny.6 mph26%29.95 "Hg10 mi
4:20 pm81 °FSunny.7 mph28%29.98 "Hg10 mi
3:50 pm79 °FSunny.7 mph32%29.98 "Hg10 mi
2:50 pm79 °FSunny.7 mph39%29.98 "Hg10 mi
2:20 pm77 °FSunny.9 mph47%30.01 "Hg10 mi
1:50 pm79 °FSunny.8 mph42%30.01 "Hg10 mi
1:20 pm77 °FWarm.9 mph44%30.01 "HgN/A
12:50 pm79 °FSunny.10 mph37%30.01 "Hg10 mi
12:20 pm79 °FSunny.9 mph32%30.01 "Hg10 mi
11:50 am79 °FSunny.7 mph30%30.01 "Hg10 mi
11:20 am79 °FSunny.8 mph28%30.01 "Hg10 mi
10:50 am79 °FSunny.7 mph26%30.01 "Hg10 mi
10:20 am79 °FSunny.5 mph28%30.01 "Hg10 mi
9:50 am75 °FSunny.3 mph47%30.01 "Hg10 mi
9:20 am73 °FSunny.6 mph47%29.98 "Hg10 mi
Weather by CustomWeather, © 2024

See weather overview